createdAt,value
2018-08-28T00:01:57.601Z,90.08
2018-08-28T00:04:26.042Z,89.91
2018-08-28T00:06:54.812Z,91.71
2018-08-28T00:09:23.249Z,93.87
2018-08-28T00:11:51.739Z,95.67
2018-08-28T00:14:20.759Z,94.94
2018-08-28T00:16:49.177Z,92.47
2018-08-28T00:19:17.643Z,92.78
2018-08-28T00:21:46.168Z,92.98
2018-08-28T00:24:14.606Z,92.62
2018-08-28T00:26:43.032Z,90.97
2018-08-28T00:29:11.743Z,89.71
2018-08-28T00:31:40.185Z,94.25
2018-08-28T00:34:08.608Z,91.18
2018-08-28T00:36:37.184Z,91.20
2018-08-28T00:39:06.395Z,92.38
2018-08-28T00:41:34.876Z,90.71
2018-08-28T00:44:03.311Z,87.07
2018-08-28T00:46:32.242Z,90.30
2018-08-28T00:49:00.695Z,88.89
2018-08-28T00:51:29.116Z,86.98
2018-08-28T00:53:57.699Z,87.07
2018-08-28T00:56:26.232Z,88.62
2018-08-28T00:58:54.675Z,89.65
2018-08-28T01:01:23.331Z,90.71
2018-08-28T01:03:51.743Z,90.21
2018-08-28T01:06:20.258Z,90.21
2018-08-28T01:08:48.777Z,86.58
2018-08-28T01:11:17.262Z,90.31
2018-08-28T01:17:16.803Z,94.74
2018-08-28T01:19:45.247Z,90.97
2018-08-28T01:22:13.647Z,93.20
2018-08-28T01:24:42.054Z,88.85
2018-08-28T01:27:10.587Z,93.42
2018-08-28T01:29:39.247Z,92.07
2018-08-28T01:32:07.711Z,91.13
2018-08-28T01:34:36.198Z,91.45
2018-08-28T01:37:04.648Z,93.63
2018-08-28T01:39:33.246Z,92.69
2018-08-28T01:42:01.727Z,93.19
2018-08-28T01:44:30.133Z,87.99
2018-08-28T01:46:58.690Z,88.65
2018-08-28T01:49:27.141Z,89.73
2018-08-28T01:51:55.556Z,92.42
2018-08-28T01:54:23.997Z,91.74
2018-08-28T01:56:52.457Z,94.29
2018-08-28T01:59:20.888Z,95.80
2018-08-28T02:01:49.292Z,95.93
2018-08-28T02:04:17.745Z,91.10
2018-08-28T02:06:46.224Z,92.33
2018-08-28T02:09:14.671Z,94.29
2018-08-28T02:11:43.091Z,95.44
2018-08-28T02:14:11.556Z,96.17
2018-08-28T02:16:40.067Z,94.92
2018-08-28T02:19:08.563Z,92.39
2018-08-28T02:21:37.579Z,95.25
2018-08-28T02:24:06.318Z,95.91
2018-08-28T02:26:34.957Z,98.06
2018-08-28T02:29:03.645Z,96.54
2018-08-28T02:31:32.144Z,96.92
2018-08-28T02:34:00.828Z,98.81
2018-08-28T02:36:29.246Z,97.25
2018-08-28T02:38:57.684Z,96.02
2018-08-28T02:41:26.098Z,97.95
2018-08-28T02:43:54.547Z,100.00
2018-08-28T02:46:22.978Z,96.25
2018-08-28T02:48:51.729Z,94.89
2018-08-28T02:51:20.192Z,94.12
2018-08-28T02:53:48.610Z,91.23
2018-08-28T02:56:17.103Z,87.06
2018-08-28T02:58:45.546Z,89.28
2018-08-28T03:01:13.982Z,89.45
2018-08-28T03:03:43.018Z,89.36
2018-08-28T03:06:11.460Z,86.97
2018-08-28T03:08:39.897Z,84.16
2018-08-28T03:11:08.310Z,85.05
2018-08-28T03:13:36.718Z,85.83
2018-08-28T03:16:05.205Z,83.96
2018-08-28T03:18:33.813Z,88.38
2018-08-28T03:21:02.291Z,84.91
2018-08-28T03:23:30.760Z,84.40
2018-08-28T03:25:59.187Z,88.95
2018-08-28T03:28:27.630Z,88.04
2018-08-28T03:30:56.053Z,88.56
2018-08-28T03:33:24.528Z,89.44
2018-08-28T03:35:53.444Z,89.80
2018-08-28T03:38:22.413Z,89.27
2018-08-28T03:40:50.842Z,88.12
2018-08-28T03:43:19.808Z,89.89
2018-08-28T03:45:48.704Z,93.18
2018-08-28T03:48:17.158Z,93.88
2018-08-28T03:50:45.655Z,92.07
2018-08-28T03:53:14.086Z,94.26
2018-08-28T03:55:42.508Z,94.94
2018-08-28T03:58:11.020Z,95.78
2018-08-28T04:00:39.465Z,95.88
2018-08-28T04:03:07.906Z,95.02
2018-08-28T04:05:36.352Z,100.00
2018-08-28T04:08:06.022Z,98.74
2018-08-28T04:10:34.480Z,99.04
2018-08-28T04:13:02.931Z,99.03
2018-08-28T04:15:31.352Z,95.43
2018-08-28T04:17:59.785Z,93.59
2018-08-28T04:20:28.380Z,91.96
2018-08-28T04:22:56.823Z,93.19
2018-08-28T04:25:25.592Z,91.71
2018-08-28T04:27:54.111Z,93.30
2018-08-28T04:30:22.803Z,92.88
2018-08-28T04:32:51.259Z,94.00
2018-08-28T04:35:19.691Z,94.15
2018-08-28T04:37:48.300Z,95.27
2018-08-28T04:40:16.772Z,93.51
2018-08-28T04:42:45.177Z,96.00
2018-08-28T04:45:13.589Z,97.13
2018-08-28T04:47:41.993Z,93.53
2018-08-28T04:50:10.664Z,95.09
2018-08-28T04:52:39.069Z,93.08
2018-08-28T04:55:07.498Z,94.26
2018-08-28T04:57:36.202Z,94.25
2018-08-28T05:00:05.244Z,90.96
2018-08-28T05:02:35.462Z,91.44
2018-08-28T05:05:06.130Z,92.62
2018-08-28T05:07:34.928Z,92.00
2018-08-28T05:10:04.253Z,90.40
2018-08-28T05:12:32.691Z,87.77
2018-08-28T05:15:01.102Z,87.41
2018-08-28T05:17:29.511Z,92.59
2018-08-28T05:19:57.955Z,89.32
2018-08-28T05:22:26.467Z,91.75
2018-08-28T05:24:54.906Z,89.88
2018-08-28T05:27:23.365Z,86.98
2018-08-28T05:29:51.771Z,89.71
2018-08-28T05:32:20.196Z,87.14
2018-08-28T05:34:48.655Z,89.31
2018-08-28T05:37:17.063Z,94.33
2018-08-28T05:39:45.724Z,90.74
2018-08-28T05:42:14.165Z,85.98
2018-08-28T05:44:42.677Z,84.39
2018-08-28T05:47:11.093Z,84.80
2018-08-28T05:49:39.671Z,82.81
2018-08-28T05:52:08.055Z,85.11
2018-08-28T05:54:36.706Z,84.09
2018-08-28T05:57:05.175Z,82.49
2018-08-28T05:59:33.642Z,86.42
2018-08-28T06:02:02.124Z,87.46
2018-08-28T06:04:30.823Z,85.44
2018-08-28T06:06:59.299Z,81.82
2018-08-28T06:09:27.748Z,81.38
2018-08-28T06:11:56.169Z,81.08
2018-08-28T06:14:24.631Z,83.76
2018-08-28T06:16:53.055Z,82.35
2018-08-28T06:19:21.466Z,78.78
2018-08-28T06:21:49.935Z,77.17
2018-08-28T06:24:18.373Z,76.63
2018-08-28T06:26:46.799Z,78.22
2018-08-28T06:29:15.215Z,73.29
2018-08-28T06:31:43.639Z,77.11
2018-08-28T06:34:12.076Z,76.83
2018-08-28T06:36:40.503Z,74.23
2018-08-28T06:39:09.718Z,74.71
2018-08-28T06:41:38.419Z,74.55
2018-08-28T06:44:07.575Z,72.95
2018-08-28T06:46:36.014Z,70.65
2018-08-28T06:49:04.776Z,72.75
2018-08-28T06:51:33.312Z,73.78
2018-08-28T06:54:01.722Z,71.77
2018-08-28T06:56:30.707Z,71.82
2018-08-28T06:58:59.140Z,73.38
2018-08-28T07:01:27.559Z,72.03
2018-08-28T07:03:56.088Z,70.50
2018-08-28T07:06:24.464Z,71.47
2018-08-28T07:08:52.899Z,72.71
2018-08-28T07:11:21.354Z,71.30
2018-08-28T07:13:50.124Z,75.60
2018-08-28T07:16:18.529Z,75.00
2018-08-28T07:18:47.155Z,73.09
2018-08-28T07:21:15.609Z,71.88
2018-08-28T07:23:44.015Z,72.71
2018-08-28T07:26:12.653Z,71.99
2018-08-28T07:28:41.150Z,71.78
2018-08-28T07:31:09.595Z,72.42
2018-08-28T07:33:38.052Z,70.96
2018-08-28T07:36:06.457Z,70.80
2018-08-28T07:38:34.891Z,70.55
2018-08-28T07:41:03.320Z,70.55
2018-08-28T07:43:31.964Z,69.87
2018-08-28T07:46:00.436Z,70.30
2018-08-28T07:48:28.927Z,70.99
2018-08-28T07:50:57.410Z,69.57
2018-08-28T07:53:25.851Z,69.76
2018-08-28T07:55:54.309Z,67.99
2018-08-28T07:58:22.777Z,70.92
2018-08-28T08:00:51.183Z,68.58
2018-08-28T08:03:23.237Z,68.41
2018-08-28T08:05:53.001Z,68.31
2018-08-28T08:08:21.871Z,67.82
2018-08-28T08:10:50.320Z,67.23
2018-08-28T08:13:18.767Z,63.00
2018-08-28T08:15:47.672Z,65.42
2018-08-28T08:18:16.291Z,62.20
2018-08-28T08:20:44.757Z,61.67
2018-08-28T08:23:13.207Z,60.41
2018-08-28T08:25:42.226Z,62.39
2018-08-28T08:28:11.242Z,64.20
2018-08-28T08:30:39.854Z,60.30
2018-08-28T08:33:08.609Z,62.08
2018-08-28T08:35:37.016Z,61.69
2018-08-28T08:38:06.343Z,60.11
2018-08-28T08:40:35.109Z,59.44
2018-08-28T08:43:03.549Z,58.56
2018-08-28T08:45:31.975Z,59.52
2018-08-28T08:48:00.380Z,56.66
2018-08-28T08:50:29.120Z,60.25
2018-08-28T08:52:57.854Z,60.37
2018-08-28T08:55:26.414Z,59.82
2018-08-28T08:57:55.075Z,59.01
2018-08-28T09:00:23.500Z,58.05
2018-08-28T09:02:52.088Z,58.32
2018-08-28T09:05:20.489Z,57.07
2018-08-28T09:07:49.681Z,55.38
2018-08-28T09:10:18.251Z,56.10
2018-08-28T09:12:46.709Z,55.05
2018-08-28T09:15:15.292Z,53.85
2018-08-28T09:17:43.747Z,49.33
2018-08-28T09:20:12.203Z,51.02
2018-08-28T09:22:40.849Z,50.06
2018-08-28T09:25:09.443Z,51.69
2018-08-28T09:27:37.906Z,50.36
2018-08-28T09:30:06.883Z,49.25
2018-08-28T09:32:35.321Z,53.54
2018-08-28T09:35:03.787Z,51.78
2018-08-28T09:37:32.242Z,54.44
2018-08-28T09:40:00.911Z,55.46
2018-08-28T09:42:29.344Z,52.18
2018-08-28T09:44:57.787Z,51.25
2018-08-28T09:47:26.423Z,48.84
2018-08-28T09:49:54.862Z,49.01
2018-08-28T09:52:23.258Z,50.10
2018-08-28T09:54:52.075Z,45.53
2018-08-28T09:57:20.544Z,45.41
2018-08-28T09:59:49.013Z,46.07
2018-08-28T10:02:17.447Z,45.43
2018-08-28T10:04:45.956Z,48.76
2018-08-28T10:07:14.368Z,47.00
2018-08-28T10:09:43.039Z,46.53
2018-08-28T10:12:11.497Z,46.13
2018-08-28T10:14:39.952Z,45.52
2018-08-28T10:17:08.412Z,47.63
2018-08-28T10:19:37.277Z,46.93
2018-08-28T10:22:05.696Z,44.27
2018-08-28T10:24:34.107Z,45.58
2018-08-28T10:27:02.514Z,43.82
2018-08-28T10:29:31.032Z,46.23
2018-08-28T10:31:59.759Z,47.32
2018-08-28T10:34:28.172Z,47.70
2018-08-28T10:36:56.621Z,45.97
2018-08-28T10:39:39.282Z,45.46
2018-08-28T10:42:08.160Z,46.15
2018-08-28T10:44:36.629Z,45.40
2018-08-28T10:47:05.152Z,46.48
2018-08-28T10:49:33.603Z,44.93
2018-08-28T10:52:02.100Z,47.74
2018-08-28T10:54:30.834Z,45.36
2018-08-28T10:56:59.235Z,46.07
2018-08-28T10:59:27.651Z,47.83
2018-08-28T11:01:56.082Z,50.67
2018-08-28T11:04:24.512Z,49.04
2018-08-28T11:06:52.960Z,48.87
2018-08-28T11:09:21.382Z,48.57
2018-08-28T11:11:49.824Z,48.56
2018-08-28T11:14:18.228Z,47.80
2018-08-28T11:16:46.627Z,46.74
2018-08-28T11:19:15.245Z,47.69
2018-08-28T11:21:43.686Z,48.10
2018-08-28T11:24:12.141Z,45.95
2018-08-28T11:26:40.573Z,45.91
2018-08-28T11:29:09.015Z,46.95
2018-08-28T11:31:37.433Z,47.57
2018-08-28T11:34:06.279Z,45.53
2018-08-28T11:36:34.731Z,46.06
2018-08-28T11:39:03.420Z,43.77
2018-08-28T11:41:31.867Z,44.99
2018-08-28T11:44:00.307Z,46.01
2018-08-28T11:46:28.695Z,39.29
2018-08-28T11:48:57.119Z,43.14
2018-08-28T11:51:25.564Z,40.38
2018-08-28T11:53:53.995Z,41.45
2018-08-28T11:56:22.589Z,38.02
2018-08-28T11:58:51.040Z,43.29
2018-08-28T12:01:19.475Z,40.73
2018-08-28T12:03:47.979Z,40.28
2018-08-28T12:06:16.405Z,39.80
2018-08-28T12:08:44.972Z,36.50
2018-08-28T12:11:13.462Z,37.67
2018-08-28T12:13:42.051Z,39.75
2018-08-28T12:16:10.792Z,40.47
2018-08-28T12:18:39.222Z,40.43
2018-08-28T12:21:07.736Z,38.83
2018-08-28T12:23:36.181Z,39.42
2018-08-28T12:26:04.596Z,36.41
2018-08-28T12:28:33.326Z,35.80
2018-08-28T12:31:01.749Z,36.49
2018-08-28T12:33:30.131Z,34.02
2018-08-28T12:35:58.529Z,36.22
2018-08-28T12:38:26.959Z,33.55
2018-08-28T12:40:55.426Z,34.06
2018-08-28T12:43:23.902Z,34.14
2018-08-28T12:45:52.331Z,35.53
2018-08-28T12:48:20.741Z,34.02
2018-08-28T12:50:49.407Z,37.56
2018-08-28T12:53:18.319Z,37.82
2018-08-28T12:55:46.741Z,35.23
2018-08-28T12:58:15.408Z,37.69
2018-08-28T13:00:43.959Z,34.18
2018-08-28T13:03:12.365Z,33.37
2018-08-28T13:05:40.804Z,36.89
2018-08-28T13:08:09.207Z,35.27
2018-08-28T13:10:37.650Z,34.63
2018-08-28T13:13:06.176Z,38.48
2018-08-28T13:15:34.649Z,40.17
2018-08-28T13:18:03.093Z,36.42
2018-08-28T13:20:31.477Z,37.31
2018-08-28T13:22:59.952Z,35.73
2018-08-28T13:25:28.753Z,33.10
2018-08-28T13:27:57.039Z,34.97
2018-08-28T13:30:25.517Z,36.00
2018-08-28T13:32:53.943Z,36.22
2018-08-28T13:35:22.461Z,33.18
2018-08-28T13:37:50.884Z,36.17
2018-08-28T13:40:19.343Z,31.94
2018-08-28T13:42:47.853Z,32.69
2018-08-28T13:45:16.315Z,33.80
2018-08-28T13:47:44.763Z,39.78
2018-08-28T13:50:13.185Z,36.97
2018-08-28T13:52:41.598Z,33.11
2018-08-28T13:55:10.084Z,31.35
2018-08-28T13:57:38.736Z,35.31
2018-08-28T14:00:07.267Z,33.70
2018-08-28T14:02:35.606Z,32.18
2018-08-28T14:05:04.908Z,32.28
2018-08-28T14:07:33.517Z,31.78
2018-08-28T14:10:02.072Z,32.11
2018-08-28T14:12:30.539Z,32.97
2018-08-28T14:14:58.991Z,31.95
2018-08-28T14:18:29.935Z,35.84
2018-08-28T14:20:58.353Z,34.03
2018-08-28T14:23:26.860Z,32.42
2018-08-28T14:25:55.375Z,35.64
2018-08-28T14:28:23.852Z,36.67
2018-08-28T14:30:52.500Z,35.68
2018-08-28T14:33:20.948Z,36.38
2018-08-28T14:35:49.922Z,32.71
2018-08-28T14:38:18.291Z,32.60
2018-08-28T14:40:46.822Z,33.69
2018-08-28T14:43:15.217Z,36.25
2018-08-28T14:45:43.711Z,34.83
2018-08-28T14:48:12.188Z,33.65
2018-08-28T14:50:40.599Z,31.07
2018-08-28T14:53:09.132Z,32.19
2018-08-28T14:55:37.579Z,33.92
2018-08-28T14:58:05.987Z,31.88
2018-08-28T15:00:34.540Z,31.64
2018-08-28T15:03:02.964Z,31.54
2018-08-28T15:05:31.683Z,31.23
2018-08-28T15:08:00.440Z,32.58
2018-08-28T15:10:29.097Z,35.07
2018-08-28T15:12:57.778Z,36.24
2018-08-28T15:15:26.187Z,33.52
2018-08-28T15:17:54.631Z,32.54
2018-08-28T15:20:23.345Z,31.68
2018-08-28T15:22:51.791Z,35.71
2018-08-28T15:25:20.253Z,35.67
2018-08-28T15:27:48.680Z,33.45
2018-08-28T15:30:17.090Z,33.14
2018-08-28T15:32:45.544Z,35.35
2018-08-28T15:35:13.986Z,34.63
2018-08-28T15:37:42.538Z,33.98
2018-08-28T15:40:10.970Z,31.44
2018-08-28T15:42:39.379Z,31.28
2018-08-28T15:45:08.112Z,31.17
2018-08-28T15:47:36.523Z,31.42
2018-08-28T15:50:05.020Z,30.51
2018-08-28T15:52:33.472Z,31.29
2018-08-28T15:55:01.899Z,31.13
2018-08-28T15:57:30.660Z,31.73
2018-08-28T15:59:59.152Z,32.85
2018-08-28T16:02:27.744Z,31.47
2018-08-28T16:04:56.227Z,29.40
2018-08-28T16:07:24.642Z,30.57
2018-08-28T16:09:53.551Z,31.23
2018-08-28T16:12:21.980Z,30.85
2018-08-28T16:14:50.710Z,32.86
2018-08-28T16:17:19.165Z,33.93
2018-08-28T16:19:47.584Z,33.42
2018-08-28T16:22:20.056Z,32.10
2018-08-28T16:24:48.453Z,30.16
2018-08-28T16:27:17.075Z,31.39
2018-08-28T16:29:45.578Z,31.56
2018-08-28T16:32:13.940Z,32.96
2018-08-28T16:34:42.375Z,32.74
2018-08-28T16:37:11.379Z,32.70
2018-08-28T16:39:39.954Z,34.08
2018-08-28T16:42:08.377Z,32.46
2018-08-28T16:44:36.848Z,32.91
2018-08-28T16:47:05.325Z,34.44
2018-08-28T16:49:33.789Z,32.91
2018-08-28T16:52:02.528Z,33.48
2018-08-28T16:54:31.263Z,34.77
2018-08-28T16:56:59.948Z,35.33
2018-08-28T16:59:28.617Z,34.50
2018-08-28T17:01:57.136Z,35.45
2018-08-28T17:04:26.556Z,37.95
2018-08-28T17:06:55.022Z,37.56
2018-08-28T17:09:23.878Z,36.21
2018-08-28T17:11:52.365Z,35.28
2018-08-28T17:14:20.828Z,36.25
2018-08-28T17:16:49.726Z,35.64
2018-08-28T17:19:18.187Z,37.19
2018-08-28T17:21:46.799Z,38.36
2018-08-28T17:24:15.443Z,37.91
2018-08-28T17:26:44.391Z,38.18
2018-08-28T17:29:12.772Z,38.56
2018-08-28T17:31:41.233Z,39.58
2018-08-28T17:34:09.692Z,39.98
2018-08-28T17:36:38.068Z,42.49
2018-08-28T17:39:07.821Z,43.28
2018-08-28T17:41:36.236Z,43.96
2018-08-28T17:44:04.755Z,47.78
2018-08-28T17:46:33.253Z,48.26
2018-08-28T17:49:01.906Z,49.25
2018-08-28T17:51:30.964Z,50.32
2018-08-28T17:53:59.429Z,50.67
2018-08-28T17:56:27.885Z,50.86
2018-08-28T17:58:56.363Z,51.54
2018-08-28T18:01:24.868Z,52.63
2018-08-28T18:03:53.305Z,52.80
2018-08-28T18:06:28.369Z,53.72
2018-08-28T18:08:56.828Z,54.03
2018-08-28T18:11:25.251Z,53.10
2018-08-28T18:13:53.745Z,53.62
2018-08-28T18:16:22.295Z,53.63
2018-08-28T18:18:50.875Z,54.14
2018-08-28T18:21:19.320Z,57.63
2018-08-28T18:23:47.734Z,61.62
2018-08-28T18:26:16.241Z,59.40
2018-08-28T18:28:44.736Z,58.09
2018-08-28T18:31:13.172Z,58.70
2018-08-28T18:33:41.704Z,58.76
2018-08-28T18:36:10.312Z,61.13
2018-08-28T18:38:38.744Z,62.23
2018-08-28T18:41:07.395Z,65.04
2018-08-28T18:43:35.690Z,66.49
2018-08-28T18:46:04.107Z,65.60
2018-08-28T18:48:32.632Z,65.89
2018-08-28T18:51:01.092Z,66.18
2018-08-28T18:53:29.545Z,64.95
2018-08-28T18:55:58.215Z,63.68
2018-08-28T18:58:26.635Z,64.44
2018-08-28T19:00:55.287Z,65.58
2018-08-28T19:03:23.783Z,65.66
2018-08-28T19:05:52.230Z,66.13
2018-08-28T19:08:20.698Z,67.46
2018-08-28T19:10:50.446Z,67.51
2018-08-28T19:13:18.852Z,68.14
2018-08-28T19:15:47.343Z,68.50
2018-08-28T19:18:15.806Z,68.39
2018-08-28T19:20:44.257Z,69.12
2018-08-28T19:23:12.657Z,67.69
2018-08-28T19:25:41.095Z,69.79
2018-08-28T19:28:09.804Z,70.68
2018-08-28T19:30:38.189Z,71.73
2018-08-28T19:33:06.728Z,70.31
2018-08-28T19:35:35.144Z,70.31
2018-08-28T19:38:03.532Z,72.00
2018-08-28T19:40:38.721Z,71.90
2018-08-28T19:43:07.194Z,70.93
2018-08-28T19:45:35.717Z,69.36
2018-08-28T19:48:04.183Z,70.97
2018-08-28T19:50:34.380Z,71.65
2018-08-28T19:53:02.900Z,71.68
2018-08-28T19:55:31.396Z,72.35
2018-08-28T19:58:00.066Z,75.18
2018-08-28T20:00:28.547Z,74.43
2018-08-28T20:02:57.172Z,74.82
2018-08-28T20:05:25.656Z,74.87
2018-08-28T20:07:54.230Z,74.39
2018-08-28T20:10:22.659Z,76.57
2018-08-28T20:12:51.051Z,74.96
2018-08-28T20:15:19.473Z,74.97
2018-08-28T20:17:47.932Z,76.87
2018-08-28T20:20:16.357Z,77.04
2018-08-28T20:22:44.813Z,78.10
2018-08-28T20:25:13.244Z,80.11
2018-08-28T20:27:41.728Z,80.29
2018-08-28T20:30:10.512Z,78.98
2018-08-28T20:32:39.099Z,77.70
2018-08-28T20:35:07.866Z,77.04
2018-08-28T20:37:36.589Z,79.94
2018-08-28T20:41:08.291Z,81.02
2018-08-28T20:43:37.107Z,81.20
2018-08-28T20:46:05.602Z,79.71
2018-08-28T20:48:34.028Z,79.14
2018-08-28T20:51:02.753Z,78.12
2018-08-28T20:53:31.266Z,77.90
2018-08-28T20:55:59.663Z,79.12
2018-08-28T20:58:29.060Z,79.89
2018-08-28T21:00:57.533Z,79.63
2018-08-28T21:03:26.003Z,80.54
2018-08-28T21:05:55.001Z,80.90
2018-08-28T21:08:23.521Z,80.44
2018-08-28T21:10:51.955Z,80.84
2018-08-28T21:13:20.372Z,81.68
2018-08-28T21:15:48.795Z,80.49
2018-08-28T21:18:17.587Z,79.68
2018-08-28T21:20:46.016Z,80.91
2018-08-28T21:23:14.417Z,82.30
2018-08-28T21:25:42.870Z,82.39
2018-08-28T21:28:11.304Z,82.96
2018-08-28T21:30:40.108Z,83.61
2018-08-28T21:33:08.542Z,84.02
2018-08-28T21:35:36.957Z,85.12
2018-08-28T21:38:05.741Z,85.79
2018-08-28T21:40:34.112Z,85.95
2018-08-28T21:43:02.544Z,87.44
2018-08-28T21:45:31.335Z,87.83
2018-08-28T21:47:59.739Z,91.01
2018-08-28T21:50:28.201Z,88.94
2018-08-28T21:52:56.788Z,87.00
2018-08-28T21:55:25.243Z,86.84
2018-08-28T21:57:53.915Z,86.23
2018-08-28T22:00:22.658Z,85.58
2018-08-28T22:02:51.117Z,84.82
2018-08-28T22:05:23.880Z,85.15
2018-08-28T22:07:56.440Z,90.47
2018-08-28T22:10:24.946Z,87.74
2018-08-28T22:12:53.396Z,89.91
2018-08-28T22:15:21.861Z,93.17
2018-08-28T22:17:50.260Z,89.36
2018-08-28T22:20:18.695Z,90.97
2018-08-28T22:22:47.421Z,91.86
2018-08-28T22:26:18.990Z,92.41
2018-08-28T22:28:47.405Z,93.31
2018-08-28T22:31:15.840Z,93.37
2018-08-28T22:33:44.239Z,92.61
2018-08-28T22:36:12.667Z,92.37
2018-08-28T22:38:41.099Z,92.25
2018-08-28T22:41:09.699Z,93.95
2018-08-28T22:43:38.136Z,96.93
2018-08-28T22:46:06.947Z,97.14
2018-08-28T22:48:35.361Z,97.20
2018-08-28T22:51:03.772Z,97.56
2018-08-28T22:53:32.152Z,96.77
2018-08-28T22:56:00.820Z,94.60
2018-08-28T22:58:29.251Z,93.27
2018-08-28T23:00:57.693Z,93.19
2018-08-28T23:03:26.235Z,94.99
2018-08-28T23:05:54.688Z,95.95
2018-08-28T23:08:23.341Z,95.36
2018-08-28T23:10:51.772Z,95.99
2018-08-28T23:13:20.167Z,95.02
2018-08-28T23:15:48.584Z,94.76
2018-08-28T23:18:17.005Z,96.16
2018-08-28T23:20:45.450Z,96.85
2018-08-28T23:23:13.905Z,97.40
2018-08-28T23:25:42.595Z,97.13
2018-08-28T23:28:11.838Z,98.80
2018-08-28T23:30:40.262Z,97.92
2018-08-28T23:33:08.719Z,98.27
2018-08-28T23:35:37.146Z,96.17
2018-08-28T23:40:40.724Z,96.87
2018-08-28T23:43:09.184Z,96.52
2018-08-28T23:45:37.624Z,96.05
2018-08-28T23:48:06.067Z,97.65
2018-08-28T23:50:34.654Z,96.75
2018-08-28T23:53:03.366Z,96.07
2018-08-28T23:55:31.793Z,96.50
2018-08-28T23:58:00.218Z,97.11
